sensor_id;sensor_type;location;lat;lon;timestamp;P1;durP1;ratioP1;P2;durP2;ratioP2
27225;SDS011;14732;51.074;3.788;2022-10-16T00:01:18;1.77;;;0.70;;
27225;SDS011;14732;51.074;3.788;2022-10-16T00:03:45;1.25;;;0.75;;
27225;SDS011;14732;51.074;3.788;2022-10-16T00:06:12;1.42;;;0.60;;
27225;SDS011;14732;51.074;3.788;2022-10-16T00:08:39;1.92;;;0.98;;
27225;SDS011;14732;51.074;3.788;2022-10-16T00:11:06;3.20;;;0.77;;
27225;SDS011;14732;51.074;3.788;2022-10-16T00:13:34;1.33;;;0.77;;
27225;SDS011;14732;51.074;3.788;2022-10-16T00:16:03;2.90;;;0.90;;
27225;SDS011;14732;51.074;3.788;2022-10-16T00:18:29;3.72;;;1.10;;
27225;SDS011;14732;51.074;3.788;2022-10-16T00:20:55;2.33;;;1.05;;
27225;SDS011;14732;51.074;3.788;2022-10-16T00:23:26;2.08;;;0.80;;
27225;SDS011;14732;51.074;3.788;2022-10-16T00:25:56;2.35;;;0.90;;
27225;SDS011;14732;51.074;3.788;2022-10-16T00:28:23;2.25;;;0.80;;
27225;SDS011;14732;51.074;3.788;2022-10-16T00:30:49;2.35;;;0.80;;
27225;SDS011;14732;51.074;3.788;2022-10-16T00:33:14;1.33;;;0.88;;
27225;SDS011;14732;51.074;3.788;2022-10-16T00:35:40;1.95;;;0.70;;
27225;SDS011;14732;51.074;3.788;2022-10-16T00:38:05;1.33;;;0.80;;
27225;SDS011;14732;51.074;3.788;2022-10-16T00:40:31;1.67;;;0.90;;
27225;SDS011;14732;51.074;3.788;2022-10-16T00:42:57;1.45;;;0.80;;
27225;SDS011;14732;51.074;3.788;2022-10-16T00:45:23;3.80;;;0.90;;
27225;SDS011;14732;51.074;3.788;2022-10-16T00:47:49;2.20;;;0.90;;
27225;SDS011;14732;51.074;3.788;2022-10-16T00:50:32;3.42;;;0.90;;
27225;SDS011;14732;51.074;3.788;2022-10-16T00:53:00;1.38;;;0.80;;
27225;SDS011;14732;51.074;3.788;2022-10-16T00:55:27;2.15;;;0.80;;
27225;SDS011;14732;51.074;3.788;2022-10-16T00:57:55;2.75;;;0.90;;
27225;SDS011;14732;51.074;3.788;2022-10-16T01:00:23;2.35;;;0.88;;
27225;SDS011;14732;51.074;3.788;2022-10-16T01:02:54;2.75;;;0.90;;
27225;SDS011;14732;51.074;3.788;2022-10-16T01:05:36;1.90;;;0.90;;
27225;SDS011;14732;51.074;3.788;2022-10-16T01:08:12;1.98;;;0.90;;
27225;SDS011;14732;51.074;3.788;2022-10-16T01:16:05;1.73;;;0.90;;
27225;SDS011;14732;51.074;3.788;2022-10-16T01:18:42;1.55;;;0.82;;
27225;SDS011;14732;51.074;3.788;2022-10-16T01:21:12;3.22;;;0.90;;
27225;SDS011;14732;51.074;3.788;2022-10-16T01:29:20;1.75;;;0.82;;
27225;SDS011;14732;51.074;3.788;2022-10-16T01:31:56;1.13;;;0.60;;
27225;SDS011;14732;51.074;3.788;2022-10-16T01:34:32;3.80;;;0.82;;
27225;SDS011;14732;51.074;3.788;2022-10-16T01:37:04;2.25;;;0.80;;
27225;SDS011;14732;51.074;3.788;2022-10-16T01:39:35;1.25;;;0.90;;
27225;SDS011;14732;51.074;3.788;2022-10-16T01:42:37;1.67;;;0.73;;
27225;SDS011;14732;51.074;3.788;2022-10-16T01:45:03;1.88;;;0.80;;
27225;SDS011;14732;51.074;3.788;2022-10-16T01:49:58;2.13;;;0.70;;
27225;SDS011;14732;51.074;3.788;2022-10-16T01:52:26;1.00;;;0.90;;
27225;SDS011;14732;51.074;3.788;2022-10-16T01:54:54;3.97;;;1.00;;
27225;SDS011;14732;51.074;3.788;2022-10-16T01:57:21;1.65;;;0.90;;
27225;SDS011;14732;51.074;3.788;2022-10-16T01:59:51;3.17;;;0.90;;
27225;SDS011;14732;51.074;3.788;2022-10-16T02:02:19;2.55;;;0.73;;
27225;SDS011;14732;51.074;3.788;2022-10-16T02:04:48;2.35;;;0.75;;
27225;SDS011;14732;51.074;3.788;2022-10-16T02:07:18;4.57;;;0.95;;
27225;SDS011;14732;51.074;3.788;2022-10-16T02:09:44;4.53;;;0.88;;
27225;SDS011;14732;51.074;3.788;2022-10-16T02:12:19;1.65;;;0.73;;
27225;SDS011;14732;51.074;3.788;2022-10-16T02:14:53;2.00;;;0.80;;
27225;SDS011;14732;51.074;3.788;2022-10-16T02:17:19;1.23;;;0.73;;
27225;SDS011;14732;51.074;3.788;2022-10-16T02:19:46;2.78;;;0.98;;
27225;SDS011;14732;51.074;3.788;2022-10-16T02:22:56;3.08;;;1.10;;
27225;SDS011;14732;51.074;3.788;2022-10-16T02:27:57;4.95;;;0.73;;
27225;SDS011;14732;51.074;3.788;2022-10-16T02:30:43;4.53;;;0.90;;
27225;SDS011;14732;51.074;3.788;2022-10-16T02:33:14;4.85;;;0.90;;
27225;SDS011;14732;51.074;3.788;2022-10-16T02:35:42;6.28;;;0.98;;
27225;SDS011;14732;51.074;3.788;2022-10-16T02:38:11;1.88;;;0.95;;
27225;SDS011;14732;51.074;3.788;2022-10-16T02:40:39;2.03;;;0.95;;
27225;SDS011;14732;51.074;3.788;2022-10-16T02:43:05;2.67;;;1.10;;
27225;SDS011;14732;51.074;3.788;2022-10-16T02:45:32;4.15;;;1.10;;
27225;SDS011;14732;51.074;3.788;2022-10-16T02:47:58;2.90;;;0.80;;
27225;SDS011;14732;51.074;3.788;2022-10-16T02:50:24;2.55;;;0.82;;
27225;SDS011;14732;51.074;3.788;2022-10-16T02:52:50;1.25;;;0.90;;
27225;SDS011;14732;51.074;3.788;2022-10-16T02:55:16;1.58;;;0.90;;
27225;SDS011;14732;51.074;3.788;2022-10-16T02:57:41;3.15;;;1.05;;
27225;SDS011;14732;51.074;3.788;2022-10-16T03:00:08;3.88;;;0.93;;
27225;SDS011;14732;51.074;3.788;2022-10-16T03:02:36;6.23;;;1.17;;
27225;SDS011;14732;51.074;3.788;2022-10-16T03:05:02;4.80;;;1.40;;
27225;SDS011;14732;51.074;3.788;2022-10-16T03:07:28;1.88;;;0.90;;
27225;SDS011;14732;51.074;3.788;2022-10-16T03:09:53;3.13;;;0.85;;
27225;SDS011;14732;51.074;3.788;2022-10-16T03:12:20;2.80;;;0.98;;
27225;SDS011;14732;51.074;3.788;2022-10-16T03:14:46;3.83;;;1.10;;
27225;SDS011;14732;51.074;3.788;2022-10-16T03:17:12;2.63;;;1.10;;
27225;SDS011;14732;51.074;3.788;2022-10-16T03:19:38;1.63;;;0.95;;
27225;SDS011;14732;51.074;3.788;2022-10-16T03:22:04;2.35;;;0.88;;
27225;SDS011;14732;51.074;3.788;2022-10-16T03:24:30;2.75;;;1.17;;
27225;SDS011;14732;51.074;3.788;2022-10-16T03:26:55;4.80;;;0.98;;
27225;SDS011;14732;51.074;3.788;2022-10-16T03:29:21;3.97;;;1.00;;
27225;SDS011;14732;51.074;3.788;2022-10-16T03:31:47;3.28;;;1.08;;
27225;SDS011;14732;51.074;3.788;2022-10-16T03:34:14;6.82;;;1.35;;
27225;SDS011;14732;51.074;3.788;2022-10-16T03:36:40;7.38;;;1.58;;
27225;SDS011;14732;51.074;3.788;2022-10-16T03:39:05;2.47;;;0.90;;
27225;SDS011;14732;51.074;3.788;2022-10-16T03:41:31;1.55;;;0.90;;
27225;SDS011;14732;51.074;3.788;2022-10-16T03:43:57;2.67;;;0.90;;
27225;SDS011;14732;51.074;3.788;2022-10-16T03:46:22;4.53;;;1.15;;
27225;SDS011;14732;51.074;3.788;2022-10-16T03:48:48;3.45;;;1.13;;
27225;SDS011;14732;51.074;3.788;2022-10-16T03:51:14;4.22;;;1.10;;
27225;SDS011;14732;51.074;3.788;2022-10-16T03:53:40;4.57;;;0.80;;
27225;SDS011;14732;51.074;3.788;2022-10-16T03:56:05;3.10;;;1.10;;
27225;SDS011;14732;51.074;3.788;2022-10-16T03:58:31;5.75;;;1.40;;
27225;SDS011;14732;51.074;3.788;2022-10-16T04:00:57;3.85;;;1.20;;
27225;SDS011;14732;51.074;3.788;2022-10-16T04:03:22;1.63;;;1.10;;
27225;SDS011;14732;51.074;3.788;2022-10-16T04:05:48;5.20;;;1.23;;
27225;SDS011;14732;51.074;3.788;2022-10-16T04:08:14;4.38;;;1.40;;
27225;SDS011;14732;51.074;3.788;2022-10-16T04:10:42;2.65;;;1.10;;
27225;SDS011;14732;51.074;3.788;2022-10-16T04:13:08;3.53;;;1.20;;
27225;SDS011;14732;51.074;3.788;2022-10-16T04:15:34;2.50;;;1.33;;
27225;SDS011;14732;51.074;3.788;2022-10-16T04:18:00;2.38;;;1.10;;
27225;SDS011;14732;51.074;3.788;2022-10-16T04:20:25;3.80;;;1.08;;
27225;SDS011;14732;51.074;3.788;2022-10-16T04:22:51;7.55;;;1.17;;
27225;SDS011;14732;51.074;3.788;2022-10-16T04:25:17;8.98;;;1.30;;
27225;SDS011;14732;51.074;3.788;2022-10-16T04:27:42;3.92;;;1.23;;
27225;SDS011;14732;51.074;3.788;2022-10-16T04:30:08;5.85;;;1.77;;
27225;SDS011;14732;51.074;3.788;2022-10-16T04:32:34;4.78;;;1.50;;
27225;SDS011;14732;51.074;3.788;2022-10-16T04:35:00;6.28;;;1.30;;
27225;SDS011;14732;51.074;3.788;2022-10-16T04:37:26;4.85;;;1.50;;
27225;SDS011;14732;51.074;3.788;2022-10-16T04:39:52;4.15;;;1.40;;
27225;SDS011;14732;51.074;3.788;2022-10-16T04:42:18;4.70;;;1.50;;
27225;SDS011;14732;51.074;3.788;2022-10-16T04:44:45;6.07;;;1.20;;
27225;SDS011;14732;51.074;3.788;2022-10-16T04:47:11;2.85;;;1.67;;
27225;SDS011;14732;51.074;3.788;2022-10-16T04:49:37;5.35;;;1.60;;
27225;SDS011;14732;51.074;3.788;2022-10-16T04:52:03;2.97;;;1.33;;
27225;SDS011;14732;51.074;3.788;2022-10-16T04:54:28;3.85;;;1.30;;
27225;SDS011;14732;51.074;3.788;2022-10-16T04:56:54;5.70;;;1.80;;
27225;SDS011;14732;51.074;3.788;2022-10-16T04:59:20;5.93;;;1.45;;
27225;SDS011;14732;51.074;3.788;2022-10-16T05:01:46;5.40;;;1.25;;
27225;SDS011;14732;51.074;3.788;2022-10-16T05:04:11;4.88;;;1.35;;
27225;SDS011;14732;51.074;3.788;2022-10-16T05:06:37;4.53;;;1.27;;
27225;SDS011;14732;51.074;3.788;2022-10-16T05:09:04;4.97;;;1.40;;
27225;SDS011;14732;51.074;3.788;2022-10-16T05:11:31;6.88;;;1.52;;
27225;SDS011;14732;51.074;3.788;2022-10-16T05:13:56;2.83;;;1.33;;
27225;SDS011;14732;51.074;3.788;2022-10-16T05:16:22;1.98;;;1.20;;
27225;SDS011;14732;51.074;3.788;2022-10-16T05:18:48;4.22;;;1.10;;
27225;SDS011;14732;51.074;3.788;2022-10-16T05:21:13;3.75;;;1.10;;
27225;SDS011;14732;51.074;3.788;2022-10-16T05:23:39;6.18;;;1.40;;
27225;SDS011;14732;51.074;3.788;2022-10-16T05:26:05;6.78;;;1.40;;
27225;SDS011;14732;51.074;3.788;2022-10-16T05:28:30;2.50;;;1.15;;
27225;SDS011;14732;51.074;3.788;2022-10-16T05:30:56;3.38;;;1.25;;
27225;SDS011;14732;51.074;3.788;2022-10-16T05:33:23;4.75;;;1.20;;
27225;SDS011;14732;51.074;3.788;2022-10-16T05:35:50;4.25;;;1.30;;
27225;SDS011;14732;51.074;3.788;2022-10-16T05:38:16;8.18;;;1.70;;
27225;SDS011;14732;51.074;3.788;2022-10-16T05:40:43;3.15;;;1.30;;
27225;SDS011;14732;51.074;3.788;2022-10-16T05:43:15;5.32;;;1.20;;
27225;SDS011;14732;51.074;3.788;2022-10-16T05:45:40;2.95;;;1.30;;
27225;SDS011;14732;51.074;3.788;2022-10-16T05:48:06;4.47;;;1.30;;
27225;SDS011;14732;51.074;3.788;2022-10-16T05:50:32;6.03;;;1.95;;
27225;SDS011;14732;51.074;3.788;2022-10-16T05:52:57;6.40;;;1.05;;
27225;SDS011;14732;51.074;3.788;2022-10-16T05:55:23;5.18;;;1.40;;
27225;SDS011;14732;51.074;3.788;2022-10-16T05:57:48;5.00;;;1.25;;
27225;SDS011;14732;51.074;3.788;2022-10-16T06:00:14;3.72;;;1.30;;
27225;SDS011;14732;51.074;3.788;2022-10-16T06:02:40;3.70;;;1.17;;
27225;SDS011;14732;51.074;3.788;2022-10-16T06:05:06;5.35;;;1.10;;
27225;SDS011;14732;51.074;3.788;2022-10-16T06:07:33;5.95;;;1.20;;
27225;SDS011;14732;51.074;3.788;2022-10-16T06:10:00;4.57;;;1.50;;
27225;SDS011;14732;51.074;3.788;2022-10-16T06:12:26;3.85;;;1.30;;
27225;SDS011;14732;51.074;3.788;2022-10-16T06:14:52;3.42;;;1.33;;
27225;SDS011;14732;51.074;3.788;2022-10-16T06:17:18;4.50;;;1.48;;
27225;SDS011;14732;51.074;3.788;2022-10-16T06:19:43;4.05;;;1.38;;
27225;SDS011;14732;51.074;3.788;2022-10-16T06:22:09;5.43;;;1.50;;
27225;SDS011;14732;51.074;3.788;2022-10-16T06:24:35;3.00;;;1.30;;
27225;SDS011;14732;51.074;3.788;2022-10-16T06:27:00;5.40;;;1.63;;
27225;SDS011;14732;51.074;3.788;2022-10-16T06:29:27;2.88;;;1.30;;
27225;SDS011;14732;51.074;3.788;2022-10-16T06:31:53;4.78;;;1.25;;
27225;SDS011;14732;51.074;3.788;2022-10-16T06:34:18;4.68;;;1.75;;
27225;SDS011;14732;51.074;3.788;2022-10-16T06:36:44;3.92;;;1.40;;
27225;SDS011;14732;51.074;3.788;2022-10-16T06:39:10;6.28;;;1.40;;
27225;SDS011;14732;51.074;3.788;2022-10-16T06:41:35;4.00;;;1.30;;
27225;SDS011;14732;51.074;3.788;2022-10-16T06:44:01;5.30;;;1.40;;
27225;SDS011;14732;51.074;3.788;2022-10-16T06:46:31;2.92;;;1.42;;
27225;SDS011;14732;51.074;3.788;2022-10-16T06:48:56;4.53;;;1.40;;
27225;SDS011;14732;51.074;3.788;2022-10-16T06:51:23;4.57;;;1.50;;
27225;SDS011;14732;51.074;3.788;2022-10-16T06:53:50;6.50;;;1.70;;
27225;SDS011;14732;51.074;3.788;2022-10-16T06:56:21;4.18;;;1.45;;
27225;SDS011;14732;51.074;3.788;2022-10-16T06:58:48;4.15;;;1.80;;
27225;SDS011;14732;51.074;3.788;2022-10-16T07:01:15;4.50;;;1.55;;
27225;SDS011;14732;51.074;3.788;2022-10-16T07:03:43;5.45;;;1.38;;
27225;SDS011;14732;51.074;3.788;2022-10-16T07:06:11;3.92;;;1.55;;
27225;SDS011;14732;51.074;3.788;2022-10-16T07:08:39;3.85;;;1.30;;
27225;SDS011;14732;51.074;3.788;2022-10-16T07:11:07;5.47;;;1.40;;
27225;SDS011;14732;51.074;3.788;2022-10-16T07:13:35;3.80;;;1.40;;
27225;SDS011;14732;51.074;3.788;2022-10-16T07:16:09;4.88;;;1.35;;
27225;SDS011;14732;51.074;3.788;2022-10-16T07:18:36;2.53;;;1.45;;
27225;SDS011;14732;51.074;3.788;2022-10-16T07:21:07;2.80;;;1.30;;
27225;SDS011;14732;51.074;3.788;2022-10-16T07:23:34;4.72;;;1.30;;
27225;SDS011;14732;51.074;3.788;2022-10-16T07:26:00;3.92;;;1.48;;
27225;SDS011;14732;51.074;3.788;2022-10-16T07:28:26;5.97;;;1.17;;
27225;SDS011;14732;51.074;3.788;2022-10-16T07:30:52;5.10;;;1.67;;
27225;SDS011;14732;51.074;3.788;2022-10-16T07:33:18;4.57;;;1.20;;
27225;SDS011;14732;51.074;3.788;2022-10-16T07:35:50;7.22;;;1.55;;
27225;SDS011;14732;51.074;3.788;2022-10-16T07:38:17;2.50;;;1.20;;
27225;SDS011;14732;51.074;3.788;2022-10-16T07:40:43;4.15;;;1.30;;
27225;SDS011;14732;51.074;3.788;2022-10-16T07:43:09;5.18;;;1.17;;
27225;SDS011;14732;51.074;3.788;2022-10-16T07:45:35;3.97;;;1.30;;
27225;SDS011;14732;51.074;3.788;2022-10-16T07:48:01;2.33;;;1.00;;
27225;SDS011;14732;51.074;3.788;2022-10-16T07:50:26;4.32;;;1.27;;
27225;SDS011;14732;51.074;3.788;2022-10-16T07:52:52;3.50;;;1.20;;
27225;SDS011;14732;51.074;3.788;2022-10-16T07:55:18;5.78;;;1.40;;
27225;SDS011;14732;51.074;3.788;2022-10-16T07:57:43;4.10;;;1.27;;
27225;SDS011;14732;51.074;3.788;2022-10-16T08:00:09;3.50;;;1.13;;
27225;SDS011;14732;51.074;3.788;2022-10-16T08:02:41;4.85;;;1.40;;
27225;SDS011;14732;51.074;3.788;2022-10-16T08:05:07;3.22;;;1.15;;
27225;SDS011;14732;51.074;3.788;2022-10-16T08:07:33;5.07;;;1.40;;
27225;SDS011;14732;51.074;3.788;2022-10-16T08:09:59;3.88;;;1.00;;
27225;SDS011;14732;51.074;3.788;2022-10-16T08:12:25;2.38;;;1.08;;
27225;SDS011;14732;51.074;3.788;2022-10-16T08:14:51;2.55;;;1.08;;
27225;SDS011;14732;51.074;3.788;2022-10-16T08:17:17;5.93;;;1.23;;
27225;SDS011;14732;51.074;3.788;2022-10-16T08:19:45;6.43;;;1.73;;
27225;SDS011;14732;51.074;3.788;2022-10-16T08:24:38;7.88;;;1.20;;
27225;SDS011;14732;51.074;3.788;2022-10-16T08:27:04;6.13;;;1.58;;
27225;SDS011;14732;51.074;3.788;2022-10-16T08:29:29;4.47;;;1.20;;
27225;SDS011;14732;51.074;3.788;2022-10-16T08:31:55;5.22;;;1.27;;
27225;SDS011;14732;51.074;3.788;2022-10-16T08:34:20;4.68;;;1.13;;
27225;SDS011;14732;51.074;3.788;2022-10-16T08:36:46;3.25;;;1.02;;
27225;SDS011;14732;51.074;3.788;2022-10-16T08:39:12;5.00;;;1.02;;
27225;SDS011;14732;51.074;3.788;2022-10-16T08:49:58;4.75;;;1.20;;
27225;SDS011;14732;51.074;3.788;2022-10-16T08:52:30;3.13;;;0.90;;
27225;SDS011;14732;51.074;3.788;2022-10-16T08:54:58;6.45;;;1.42;;
27225;SDS011;14732;51.074;3.788;2022-10-16T08:57:25;4.90;;;1.30;;
27225;SDS011;14732;51.074;3.788;2022-10-16T08:59:52;5.18;;;1.20;;
27225;SDS011;14732;51.074;3.788;2022-10-16T09:02:37;3.97;;;1.08;;
27225;SDS011;14732;51.074;3.788;2022-10-16T09:21:41;7.43;;;1.30;;
27225;SDS011;14732;51.074;3.788;2022-10-16T09:24:13;5.28;;;1.50;;
27225;SDS011;14732;51.074;3.788;2022-10-16T09:26:41;4.28;;;1.10;;
27225;SDS011;14732;51.074;3.788;2022-10-16T09:29:12;5.60;;;1.42;;
27225;SDS011;14732;51.074;3.788;2022-10-16T09:31:41;4.10;;;1.20;;
27225;SDS011;14732;51.074;3.788;2022-10-16T09:37:05;5.60;;;1.58;;
27225;SDS011;14732;51.074;3.788;2022-10-16T09:39:47;5.47;;;1.40;;
27225;SDS011;14732;51.074;3.788;2022-10-16T09:44:49;7.38;;;1.40;;
27225;SDS011;14732;51.074;3.788;2022-10-16T09:47:21;5.60;;;1.23;;
27225;SDS011;14732;51.074;3.788;2022-10-16T09:49:55;4.95;;;1.10;;
27225;SDS011;14732;51.074;3.788;2022-10-16T10:02:49;5.13;;;1.15;;
27225;SDS011;14732;51.074;3.788;2022-10-16T10:05:22;6.78;;;1.30;;
27225;SDS011;14732;51.074;3.788;2022-10-16T10:11:46;8.90;;;1.60;;
27225;SDS011;14732;51.074;3.788;2022-10-16T11:15:40;10.57;;;1.20;;
27225;SDS011;14732;51.074;3.788;2022-10-16T11:20:25;8.07;;;1.30;;
27225;SDS011;14732;51.074;3.788;2022-10-16T11:26:27;6.45;;;1.08;;
27225;SDS011;14732;51.074;3.788;2022-10-16T11:53:32;4.10;;;1.10;;
27225;SDS011;14732;51.074;3.788;2022-10-16T11:56:29;7.35;;;1.42;;
27225;SDS011;14732;51.074;3.788;2022-10-16T12:09:15;5.57;;;1.23;;
27225;SDS011;14732;51.074;3.788;2022-10-16T12:12:40;9.27;;;1.77;;
27225;SDS011;14732;51.074;3.788;2022-10-16T12:19:17;6.22;;;1.10;;
27225;SDS011;14732;51.074;3.788;2022-10-16T12:21:46;4.75;;;1.00;;
27225;SDS011;14732;51.074;3.788;2022-10-16T12:44:54;5.75;;;1.00;;
27225;SDS011;14732;51.074;3.788;2022-10-16T12:50:00;3.75;;;0.90;;
27225;SDS011;14732;51.074;3.788;2022-10-16T12:56:33;2.40;;;0.70;;
27225;SDS011;14732;51.074;3.788;2022-10-16T12:59:08;5.40;;;0.90;;
27225;SDS011;14732;51.074;3.788;2022-10-16T13:28:44;5.10;;;1.02;;
27225;SDS011;14732;51.074;3.788;2022-10-16T13:31:43;4.18;;;1.25;;
27225;SDS011;14732;51.074;3.788;2022-10-16T13:34:15;2.67;;;1.10;;
27225;SDS011;14732;51.074;3.788;2022-10-16T13:36:45;7.05;;;1.20;;
27225;SDS011;14732;51.074;3.788;2022-10-16T13:39:21;3.45;;;1.20;;
27225;SDS011;14732;51.074;3.788;2022-10-16T13:42:01;3.47;;;1.00;;
27225;SDS011;14732;51.074;3.788;2022-10-16T13:44:46;5.53;;;1.05;;
27225;SDS011;14732;51.074;3.788;2022-10-16T13:47:18;7.78;;;1.70;;
27225;SDS011;14732;51.074;3.788;2022-10-16T13:49:58;4.03;;;0.82;;
27225;SDS011;14732;51.074;3.788;2022-10-16T13:56:20;5.68;;;0.93;;
27225;SDS011;14732;51.074;3.788;2022-10-16T14:02:00;4.25;;;0.90;;
27225;SDS011;14732;51.074;3.788;2022-10-16T14:04:46;1.92;;;0.70;;
27225;SDS011;14732;51.074;3.788;2022-10-16T14:07:18;4.60;;;0.90;;
27225;SDS011;14732;51.074;3.788;2022-10-16T14:09:51;3.78;;;0.75;;
27225;SDS011;14732;51.074;3.788;2022-10-16T14:18:15;3.35;;;0.82;;
27225;SDS011;14732;51.074;3.788;2022-10-16T14:20:46;2.97;;;0.80;;
27225;SDS011;14732;51.074;3.788;2022-10-16T14:26:44;1.77;;;0.70;;
27225;SDS011;14732;51.074;3.788;2022-10-16T14:29:14;3.40;;;1.05;;
27225;SDS011;14732;51.074;3.788;2022-10-16T14:31:57;2.92;;;0.90;;
27225;SDS011;14732;51.074;3.788;2022-10-16T14:34:33;2.45;;;0.80;;
27225;SDS011;14732;51.074;3.788;2022-10-16T14:37:33;2.63;;;0.88;;
27225;SDS011;14732;51.074;3.788;2022-10-16T14:41:09;2.28;;;0.70;;
27225;SDS011;14732;51.074;3.788;2022-10-16T14:50:54;1.65;;;0.65;;
27225;SDS011;14732;51.074;3.788;2022-10-16T15:03:58;4.70;;;1.00;;
27225;SDS011;14732;51.074;3.788;2022-10-16T15:10:43;4.95;;;1.00;;
27225;SDS011;14732;51.074;3.788;2022-10-16T15:13:13;3.55;;;1.00;;
27225;SDS011;14732;51.074;3.788;2022-10-16T15:15:43;2.55;;;0.70;;
27225;SDS011;14732;51.074;3.788;2022-10-16T15:18:10;2.35;;;0.88;;
27225;SDS011;14732;51.074;3.788;2022-10-16T15:20:36;4.30;;;0.88;;
27225;SDS011;14732;51.074;3.788;2022-10-16T15:23:04;1.67;;;0.60;;
27225;SDS011;14732;51.074;3.788;2022-10-16T15:25:38;3.40;;;0.80;;
27225;SDS011;14732;51.074;3.788;2022-10-16T15:28:10;3.17;;;0.80;;
27225;SDS011;14732;51.074;3.788;2022-10-16T15:30:38;1.75;;;0.75;;
27225;SDS011;14732;51.074;3.788;2022-10-16T15:33:04;0.77;;;0.77;;
27225;SDS011;14732;51.074;3.788;2022-10-16T15:35:35;3.25;;;0.90;;
27225;SDS011;14732;51.074;3.788;2022-10-16T15:38:01;2.33;;;0.80;;
27225;SDS011;14732;51.074;3.788;2022-10-16T15:40:27;1.55;;;0.80;;
27225;SDS011;14732;51.074;3.788;2022-10-16T15:42:52;3.15;;;0.82;;
27225;SDS011;14732;51.074;3.788;2022-10-16T15:45:18;1.80;;;0.77;;
27225;SDS011;14732;51.074;3.788;2022-10-16T15:47:44;3.35;;;0.80;;
27225;SDS011;14732;51.074;3.788;2022-10-16T15:50:11;2.97;;;0.93;;
27225;SDS011;14732;51.074;3.788;2022-10-16T15:52:38;4.05;;;0.93;;
27225;SDS011;14732;51.074;3.788;2022-10-16T15:55:08;2.72;;;1.08;;
27225;SDS011;14732;51.074;3.788;2022-10-16T15:57:36;2.72;;;1.15;;
27225;SDS011;14732;51.074;3.788;2022-10-16T16:00:04;2.13;;;1.33;;
27225;SDS011;14732;51.074;3.788;2022-10-16T16:02:32;6.22;;;2.63;;
27225;SDS011;14732;51.074;3.788;2022-10-16T16:04:58;6.45;;;2.47;;
27225;SDS011;14732;51.074;3.788;2022-10-16T16:07:23;3.92;;;1.30;;
27225;SDS011;14732;51.074;3.788;2022-10-16T16:09:49;5.32;;;2.88;;
27225;SDS011;14732;51.074;3.788;2022-10-16T16:12:15;2.42;;;1.48;;
27225;SDS011;14732;51.074;3.788;2022-10-16T16:14:40;7.20;;;3.05;;
27225;SDS011;14732;51.074;3.788;2022-10-16T16:17:07;7.10;;;3.20;;
27225;SDS011;14732;51.074;3.788;2022-10-16T16:19:33;9.45;;;5.25;;
27225;SDS011;14732;51.074;3.788;2022-10-16T16:21:58;13.07;;;6.47;;
27225;SDS011;14732;51.074;3.788;2022-10-16T16:24:24;21.48;;;9.77;;
27225;SDS011;14732;51.074;3.788;2022-10-16T16:26:50;14.85;;;6.07;;
27225;SDS011;14732;51.074;3.788;2022-10-16T16:29:15;23.92;;;11.30;;
27225;SDS011;14732;51.074;3.788;2022-10-16T16:31:41;11.60;;;4.13;;
27225;SDS011;14732;51.074;3.788;2022-10-16T16:34:07;7.93;;;4.07;;
27225;SDS011;14732;51.074;3.788;2022-10-16T16:36:34;18.10;;;5.57;;
27225;SDS011;14732;51.074;3.788;2022-10-16T16:39:01;15.45;;;5.60;;
27225;SDS011;14732;51.074;3.788;2022-10-16T16:41:27;9.93;;;4.25;;
27225;SDS011;14732;51.074;3.788;2022-10-16T16:43:55;7.90;;;3.75;;
27225;SDS011;14732;51.074;3.788;2022-10-16T16:46:26;6.63;;;3.08;;
27225;SDS011;14732;51.074;3.788;2022-10-16T16:48:52;8.55;;;3.05;;
27225;SDS011;14732;51.074;3.788;2022-10-16T16:51:20;6.20;;;2.97;;
27225;SDS011;14732;51.074;3.788;2022-10-16T16:53:46;4.85;;;2.90;;
27225;SDS011;14732;51.074;3.788;2022-10-16T16:56:14;4.75;;;2.00;;
27225;SDS011;14732;51.074;3.788;2022-10-16T16:58:40;11.45;;;3.05;;
27225;SDS011;14732;51.074;3.788;2022-10-16T17:01:06;7.63;;;3.38;;
27225;SDS011;14732;51.074;3.788;2022-10-16T17:03:35;10.82;;;4.10;;
27225;SDS011;14732;51.074;3.788;2022-10-16T17:06:02;11.98;;;5.90;;
27225;SDS011;14732;51.074;3.788;2022-10-16T17:08:30;20.00;;;7.30;;
27225;SDS011;14732;51.074;3.788;2022-10-16T17:10:56;7.32;;;3.58;;
27225;SDS011;14732;51.074;3.788;2022-10-16T17:13:23;6.95;;;2.50;;
27225;SDS011;14732;51.074;3.788;2022-10-16T17:15:50;8.60;;;4.60;;
27225;SDS011;14732;51.074;3.788;2022-10-16T17:18:17;5.65;;;1.75;;
27225;SDS011;14732;51.074;3.788;2022-10-16T17:20:44;3.53;;;2.20;;
27225;SDS011;14732;51.074;3.788;2022-10-16T17:23:10;4.97;;;2.40;;
27225;SDS011;14732;51.074;3.788;2022-10-16T17:25:36;8.10;;;2.30;;
27225;SDS011;14732;51.074;3.788;2022-10-16T17:28:03;6.25;;;2.60;;
27225;SDS011;14732;51.074;3.788;2022-10-16T17:30:30;7.30;;;2.95;;
27225;SDS011;14732;51.074;3.788;2022-10-16T17:32:58;7.10;;;3.17;;
27225;SDS011;14732;51.074;3.788;2022-10-16T17:35:24;8.30;;;2.80;;
27225;SDS011;14732;51.074;3.788;2022-10-16T17:37:51;7.60;;;3.85;;
27225;SDS011;14732;51.074;3.788;2022-10-16T17:40:17;6.18;;;3.38;;
27225;SDS011;14732;51.074;3.788;2022-10-16T17:42:43;5.00;;;3.28;;
27225;SDS011;14732;51.074;3.788;2022-10-16T17:45:08;7.82;;;3.88;;
27225;SDS011;14732;51.074;3.788;2022-10-16T17:47:34;16.80;;;5.32;;
27225;SDS011;14732;51.074;3.788;2022-10-16T17:50:00;11.77;;;6.85;;
27225;SDS011;14732;51.074;3.788;2022-10-16T17:52:27;13.98;;;5.38;;
27225;SDS011;14732;51.074;3.788;2022-10-16T17:54:53;7.88;;;5.05;;
27225;SDS011;14732;51.074;3.788;2022-10-16T17:57:20;6.10;;;4.22;;
27225;SDS011;14732;51.074;3.788;2022-10-16T17:59:46;8.15;;;4.43;;
27225;SDS011;14732;51.074;3.788;2022-10-16T18:02:12;6.35;;;3.80;;
27225;SDS011;14732;51.074;3.788;2022-10-16T18:04:38;9.02;;;4.05;;
27225;SDS011;14732;51.074;3.788;2022-10-16T18:07:04;11.30;;;4.38;;
27225;SDS011;14732;51.074;3.788;2022-10-16T18:09:30;6.75;;;4.00;;
27225;SDS011;14732;51.074;3.788;2022-10-16T18:11:56;9.40;;;4.45;;
27225;SDS011;14732;51.074;3.788;2022-10-16T18:14:26;7.00;;;3.90;;
27225;SDS011;14732;51.074;3.788;2022-10-16T18:16:54;12.15;;;4.20;;
27225;SDS011;14732;51.074;3.788;2022-10-16T18:19:22;9.52;;;4.65;;
27225;SDS011;14732;51.074;3.788;2022-10-16T18:21:48;9.23;;;4.63;;
27225;SDS011;14732;51.074;3.788;2022-10-16T18:24:15;8.75;;;4.30;;
27225;SDS011;14732;51.074;3.788;2022-10-16T18:26:42;7.22;;;4.32;;
27225;SDS011;14732;51.074;3.788;2022-10-16T18:29:08;11.00;;;4.43;;
27225;SDS011;14732;51.074;3.788;2022-10-16T18:31:35;8.57;;;4.35;;
27225;SDS011;14732;51.074;3.788;2022-10-16T18:34:01;12.48;;;4.90;;
27225;SDS011;14732;51.074;3.788;2022-10-16T18:36:27;8.82;;;5.55;;
27225;SDS011;14732;51.074;3.788;2022-10-16T18:38:56;10.82;;;5.50;;
27225;SDS011;14732;51.074;3.788;2022-10-16T18:41:23;6.82;;;4.68;;
27225;SDS011;14732;51.074;3.788;2022-10-16T18:43:49;6.85;;;4.80;;
27225;SDS011;14732;51.074;3.788;2022-10-16T18:46:16;7.75;;;4.57;;
27225;SDS011;14732;51.074;3.788;2022-10-16T18:48:43;8.70;;;4.57;;
27225;SDS011;14732;51.074;3.788;2022-10-16T18:51:21;8.07;;;4.78;;
27225;SDS011;14732;51.074;3.788;2022-10-16T18:53:52;11.95;;;4.57;;
27225;SDS011;14732;51.074;3.788;2022-10-16T18:56:22;6.07;;;4.40;;
27225;SDS011;14732;51.074;3.788;2022-10-16T18:58:49;9.27;;;5.00;;
27225;SDS011;14732;51.074;3.788;2022-10-16T19:01:19;10.55;;;5.22;;
27225;SDS011;14732;51.074;3.788;2022-10-16T19:03:46;9.95;;;5.18;;
27225;SDS011;14732;51.074;3.788;2022-10-16T19:06:13;9.80;;;5.90;;
27225;SDS011;14732;51.074;3.788;2022-10-16T19:08:40;9.88;;;5.07;;
27225;SDS011;14732;51.074;3.788;2022-10-16T19:11:14;12.48;;;5.70;;
27225;SDS011;14732;51.074;3.788;2022-10-16T19:13:44;11.43;;;5.93;;
27225;SDS011;14732;51.074;3.788;2022-10-16T19:16:34;8.80;;;5.38;;
27225;SDS011;14732;51.074;3.788;2022-10-16T19:19:00;7.03;;;5.55;;